createdAt,value
2022-12-26T00:01:26.966Z,99985.41
2022-12-26T00:03:56.219Z,100000.97
2022-12-26T00:06:27.236Z,99990.41
2022-12-26T00:08:56.431Z,99997.38
2022-12-26T00:11:25.753Z,99985.91
2022-12-26T00:14:01.176Z,99996.16
2022-12-26T00:16:32.895Z,99995.88
2022-12-26T00:19:01.058Z,99987.28
2022-12-26T00:21:29.850Z,99998.09
2022-12-26T00:24:00.329Z,100001.97
2022-12-26T00:26:30.034Z,100006.47
2022-12-26T00:29:00.272Z,100021.38
2022-12-26T00:31:31.984Z,100007.59
2022-12-26T00:34:00.437Z,100007.22
2022-12-26T00:36:30.718Z,99992.34
2022-12-26T00:39:00.870Z,99991.13
2022-12-26T00:41:32.369Z,99988.59
2022-12-26T00:44:03.468Z,99994.19
2022-12-26T00:46:32.411Z,99989.72
2022-12-26T00:49:04.457Z,99979.16
2022-12-26T00:51:32.746Z,99974.19
2022-12-26T00:54:00.807Z,99977.00
2022-12-26T00:56:29.088Z,99978.09
2022-12-26T00:58:57.775Z,99978.34
2022-12-26T01:01:33.472Z,99980.06
2022-12-26T01:04:02.116Z,99972.63
2022-12-26T01:06:31.424Z,99967.19
2022-12-26T01:09:00.118Z,99970.81
2022-12-26T01:11:44.032Z,99967.78
2022-12-26T01:14:15.945Z,99968.63
2022-12-26T01:16:47.331Z,99963.03
2022-12-26T01:19:15.975Z,99957.72
2022-12-26T01:21:44.595Z,99954.06
2022-12-26T01:24:15.488Z,99965.84
2022-12-26T01:26:43.666Z,99969.09
2022-12-26T01:29:11.975Z,99965.09
2022-12-26T01:31:40.040Z,99961.44
2022-12-26T01:34:09.473Z,99951.38
2022-12-26T01:36:37.724Z,99961.75
2022-12-26T01:39:05.678Z,99961.75
2022-12-26T01:41:34.016Z,99960.69
2022-12-26T01:44:05.457Z,99954.97
2022-12-26T01:46:39.229Z,99965.03
2022-12-26T01:49:15.089Z,99968.56
2022-12-26T01:51:48.007Z,99968.06
2022-12-26T01:54:39.122Z,99964.06
2022-12-26T01:57:10.460Z,99970.59
2022-12-26T01:59:41.729Z,99961.34
2022-12-26T02:02:11.875Z,99950.56
2022-12-26T02:05:04.771Z,99962.72
2022-12-26T02:07:35.364Z,99957.81
2022-12-26T02:10:05.271Z,99961.59
2022-12-26T02:12:38.888Z,99955.87
2022-12-26T02:15:12.785Z,99954.19
2022-12-26T02:17:41.768Z,99959.44
2022-12-26T02:20:20.356Z,99956.00
2022-12-26T02:23:26.990Z,99966.31
2022-12-26T02:26:21.773Z,99958.03
2022-12-26T02:29:13.636Z,99953.59
2022-12-26T02:31:56.143Z,99954.66
2022-12-26T02:34:31.678Z,99959.91
2022-12-26T02:37:14.335Z,99954.78
2022-12-26T02:40:04.028Z,99959.22
2022-12-26T02:42:43.026Z,99936.34
2022-12-26T02:45:32.528Z,99942.22
2022-12-26T02:48:13.517Z,99955.28
2022-12-26T02:51:14.815Z,99956.53
2022-12-26T02:54:09.861Z,99951.91
2022-12-26T02:57:00.471Z,99942.22
2022-12-26T02:59:57.573Z,99948.59
2022-12-26T03:02:51.273Z,99961.13
2022-12-26T03:05:44.572Z,99957.50
2022-12-26T03:08:37.345Z,99962.31
2022-12-26T03:11:23.779Z,99961.59
2022-12-26T03:13:52.376Z,99959.16
2022-12-26T03:16:43.660Z,99959.16
2022-12-26T03:19:15.192Z,99943.38
2022-12-26T03:21:46.851Z,99953.03
2022-12-26T03:24:18.180Z,99957.03
2022-12-26T03:26:51.831Z,99946.66
2022-12-26T03:29:40.557Z,99949.38
2022-12-26T03:32:10.708Z,99960.84
2022-12-26T03:34:42.906Z,99961.75
2022-12-26T03:37:48.705Z,99958.38
2022-12-26T03:40:48.744Z,99973.13
2022-12-26T03:43:44.564Z,99976.72
2022-12-26T03:46:36.321Z,99970.13
2022-12-26T03:49:28.603Z,99985.50
2022-12-26T03:52:20.332Z,100002.09
2022-12-26T03:55:13.079Z,100015.56
2022-12-26T03:58:06.803Z,100009.94
2022-12-26T04:00:55.300Z,100015.25
2022-12-26T04:03:44.336Z,100012.19
2022-12-26T04:06:37.032Z,100018.78
2022-12-26T04:09:28.973Z,100015.78
2022-12-26T04:12:18.862Z,100019.56
2022-12-26T04:15:11.467Z,100012.75
2022-12-26T04:18:03.506Z,100013.03
2022-12-26T04:20:37.964Z,100010.81
2022-12-26T04:23:28.327Z,100017.94
2022-12-26T04:26:21.077Z,100020.25
2022-12-26T04:29:09.006Z,100016.63
2022-12-26T04:32:01.622Z,100008.62
2022-12-26T04:34:54.245Z,100005.34
2022-12-26T04:37:44.890Z,100005.34
2022-12-26T04:40:38.816Z,100012.03
2022-12-26T04:43:47.461Z,100016.78
2022-12-26T04:46:18.589Z,100005.25
2022-12-26T04:49:07.100Z,99999.75
2022-12-26T04:51:35.619Z,99999.16
2022-12-26T04:54:04.191Z,100014.06
2022-12-26T04:56:32.464Z,100011.72
2022-12-26T04:59:00.554Z,100018.16
2022-12-26T05:01:47.629Z,100023.00
2022-12-26T05:04:34.426Z,100025.06
2022-12-26T05:07:18.473Z,100019.13
2022-12-26T05:09:49.131Z,100024.94
2022-12-26T05:12:17.826Z,100020.81
2022-12-26T05:14:45.992Z,100023.97
2022-12-26T05:17:33.491Z,100020.19
2022-12-26T05:20:19.486Z,100022.84
2022-12-26T05:23:07.252Z,100017.66
2022-12-26T05:25:58.771Z,100022.66
2022-12-26T05:28:42.710Z,100007.97
2022-12-26T05:31:12.719Z,100002.56
2022-12-26T05:34:00.257Z,100004.13
2022-12-26T05:36:32.015Z,100008.34
2022-12-26T05:39:00.660Z,100002.69
2022-12-26T05:41:28.930Z,100010.56
2022-12-26T05:43:56.870Z,99992.09
2022-12-26T05:46:24.922Z,100003.28
2022-12-26T05:48:54.603Z,99996.94
2022-12-26T05:51:22.816Z,100005.28
2022-12-26T05:53:51.698Z,99999.81
2022-12-26T05:56:22.614Z,100005.16
2022-12-26T05:58:55.322Z,100005.56
2022-12-26T06:01:23.975Z,100016.97
2022-12-26T06:03:55.450Z,100019.75
2022-12-26T06:06:25.799Z,100012.97
2022-12-26T06:08:56.808Z,100019.56
2022-12-26T06:11:26.647Z,100023.06
2022-12-26T06:13:55.818Z,100015.31
2022-12-26T06:16:24.400Z,100015.12
2022-12-26T06:18:54.907Z,100020.31
2022-12-26T06:21:24.167Z,100034.66
2022-12-26T06:23:52.236Z,100034.66
2022-12-26T06:26:20.217Z,100041.19
2022-12-26T06:28:48.599Z,100050.16
2022-12-26T06:31:20.849Z,100032.72
2022-12-26T06:33:50.618Z,100041.47
2022-12-26T06:36:22.173Z,100054.44
2022-12-26T06:38:51.462Z,100043.53
2022-12-26T06:41:21.390Z,100037.50
2022-12-26T06:43:49.945Z,100025.72
2022-12-26T06:46:21.334Z,100029.94
2022-12-26T06:48:49.577Z,100034.56
2022-12-26T06:51:21.261Z,100051.41
2022-12-26T06:53:49.686Z,100053.94
2022-12-26T06:56:20.199Z,100058.44
2022-12-26T06:58:48.754Z,100060.34
2022-12-26T07:01:19.124Z,100054.88
2022-12-26T07:03:51.873Z,100066.41
2022-12-26T07:06:25.609Z,100076.09
2022-12-26T07:08:54.706Z,100087.75
2022-12-26T07:11:25.230Z,100087.75
2022-12-26T07:13:57.101Z,100091.75
2022-12-26T07:16:26.173Z,100089.56
2022-12-26T07:18:55.262Z,100090.16
2022-12-26T07:21:26.439Z,100088.41
2022-12-26T07:23:56.058Z,100085.06
2022-12-26T07:26:25.118Z,100073.03
2022-12-26T07:28:54.994Z,100068.91
2022-12-26T07:31:25.187Z,100069.38
2022-12-26T07:33:54.693Z,100063.25
2022-12-26T07:36:25.112Z,100070.09
2022-12-26T07:38:53.560Z,100074.84
2022-12-26T07:41:39.071Z,100076.69
2022-12-26T07:44:08.001Z,100088.06
2022-12-26T07:46:36.402Z,100095.59
2022-12-26T07:49:05.680Z,100099.25
2022-12-26T07:51:35.608Z,100101.94
2022-12-26T07:54:10.468Z,100094.53
2022-12-26T07:56:39.708Z,100097.56
2022-12-26T07:59:07.988Z,100106.69
2022-12-26T08:01:36.204Z,100105.34
2022-12-26T08:04:04.961Z,100097.34
2022-12-26T08:06:33.140Z,100110.22
2022-12-26T08:09:02.603Z,100098.63
2022-12-26T08:11:33.734Z,100102.53
2022-12-26T08:14:02.198Z,100102.34
2022-12-26T08:16:32.104Z,100114.22
2022-12-26T08:19:03.882Z,100114.34
2022-12-26T08:21:32.660Z,100118.56
2022-12-26T08:24:20.131Z,100124.00
2022-12-26T08:27:05.575Z,100107.63
2022-12-26T08:29:40.478Z,100114.09
2022-12-26T08:32:13.684Z,100117.81
2022-12-26T08:34:48.767Z,100110.84
2022-12-26T08:37:36.134Z,100109.19
2022-12-26T08:40:07.548Z,100116.00
2022-12-26T08:43:11.784Z,100126.69
2022-12-26T08:45:39.496Z,100130.06
2022-12-26T08:48:26.462Z,100132.66
2022-12-26T08:51:00.914Z,100121.13
2022-12-26T08:53:42.070Z,100127.78
2022-12-26T08:56:15.269Z,100130.19
2022-12-26T08:58:44.628Z,100134.16
2022-12-26T09:01:22.144Z,100134.19
2022-12-26T09:03:55.249Z,100136.47
2022-12-26T09:06:23.867Z,100134.97
2022-12-26T09:08:52.561Z,100143.28
2022-12-26T09:11:26.725Z,100149.47
2022-12-26T09:13:56.371Z,100153.97
2022-12-26T09:16:30.456Z,100149.50
2022-12-26T09:19:02.549Z,100153.91
2022-12-26T09:21:32.030Z,100149.97
2022-12-26T09:24:01.661Z,100164.50
2022-12-26T09:26:31.488Z,100156.56
2022-12-26T09:29:00.679Z,100156.59
2022-12-26T09:31:31.135Z,100155.50
2022-12-26T09:34:00.318Z,100153.63
2022-12-26T09:36:32.067Z,100155.47
2022-12-26T09:39:01.216Z,100167.72
2022-12-26T09:41:44.583Z,100160.16
2022-12-26T09:44:18.923Z,100173.50
2022-12-26T09:46:57.573Z,100166.63
2022-12-26T09:49:30.976Z,100171.56
2022-12-26T09:52:03.189Z,100181.44
2022-12-26T09:54:35.821Z,100182.53
2022-12-26T09:57:15.277Z,100180.28
2022-12-26T09:59:48.650Z,100173.09
2022-12-26T10:02:20.741Z,100180.13
2022-12-26T10:04:49.542Z,100177.88
2022-12-26T10:07:26.562Z,100176.34
2022-12-26T10:10:09.135Z,100182.41
2022-12-26T10:12:43.577Z,100184.78
2022-12-26T10:15:32.155Z,100178.84
2022-12-26T10:18:13.243Z,100190.09
2022-12-26T10:20:55.341Z,100192.22
2022-12-26T10:23:43.895Z,100178.91
2022-12-26T10:26:15.464Z,100183.50
2022-12-26T10:28:48.660Z,100188.91
2022-12-26T10:31:22.106Z,100173.03
2022-12-26T10:33:57.445Z,100179.34
2022-12-26T10:36:33.622Z,100174.22
2022-12-26T10:39:04.264Z,100194.28
2022-12-26T10:41:38.928Z,100189.56
2022-12-26T10:44:11.574Z,100194.78
2022-12-26T10:47:15.371Z,100190.97
2022-12-26T10:49:45.999Z,100199.28
2022-12-26T10:52:15.389Z,100199.81
2022-12-26T10:54:43.592Z,100185.50
2022-12-26T10:57:11.602Z,100172.94
2022-12-26T10:59:46.342Z,100167.81
2022-12-26T11:02:23.598Z,100168.03
2022-12-26T11:05:33.438Z,100162.53
2022-12-26T11:07:53.165Z,100159.84
2022-12-26T11:10:25.543Z,100161.44
2022-12-26T11:12:55.627Z,100161.19
2022-12-26T11:15:32.272Z,100166.91
2022-12-26T11:18:18.385Z,100194.34
2022-12-26T11:20:47.763Z,100214.03
2022-12-26T11:23:25.717Z,100204.28
2022-12-26T11:25:56.265Z,100196.47
2022-12-26T11:28:31.863Z,100202.87
2022-12-26T11:31:03.211Z,100220.97
2022-12-26T11:33:34.711Z,100219.97
2022-12-26T11:36:09.551Z,100232.63
2022-12-26T11:38:49.517Z,100229.28
2022-12-26T11:41:32.868Z,100219.91
2022-12-26T11:44:12.702Z,100220.66
2022-12-26T11:46:45.605Z,100230.97
2022-12-26T11:49:20.320Z,100232.19
2022-12-26T11:51:55.639Z,100219.25
2022-12-26T11:54:34.318Z,100222.88
2022-12-26T11:57:20.420Z,100214.81
2022-12-26T11:59:50.062Z,100210.13
2022-12-26T12:02:25.302Z,100205.47
2022-12-26T12:04:56.453Z,100197.16
2022-12-26T12:07:47.544Z,100210.63
2022-12-26T12:10:49.188Z,100209.63
2022-12-26T12:13:28.688Z,100207.19
2022-12-26T12:16:07.069Z,100194.31
2022-12-26T12:18:50.670Z,100193.66
2022-12-26T12:21:29.053Z,100184.44
2022-12-26T12:24:14.246Z,100189.16
2022-12-26T12:26:54.859Z,100185.16
2022-12-26T12:29:40.098Z,100190.13
2022-12-26T12:32:13.912Z,100190.69
2022-12-26T12:34:58.764Z,100187.44
2022-12-26T12:37:39.520Z,100200.84
2022-12-26T12:40:23.978Z,100205.31
2022-12-26T12:42:59.073Z,100210.56
2022-12-26T12:45:32.647Z,100206.94
2022-12-26T12:48:29.023Z,100212.28
2022-12-26T12:51:08.986Z,100216.53
2022-12-26T12:53:55.146Z,100217.09
2022-12-26T12:56:38.357Z,100222.44
2022-12-26T12:59:21.001Z,100224.91
2022-12-26T13:01:54.142Z,100217.63
2022-12-26T13:04:27.165Z,100209.31
2022-12-26T13:07:00.794Z,100199.09
2022-12-26T13:09:37.890Z,100210.56
2022-12-26T13:12:09.547Z,100205.50
2022-12-26T13:14:42.262Z,100209.22
2022-12-26T13:17:23.491Z,100206.19
2022-12-26T13:20:02.335Z,100214.75
2022-12-26T13:22:50.727Z,100220.41
2022-12-26T13:25:21.041Z,100223.22
2022-12-26T13:27:52.399Z,100217.63
2022-12-26T13:30:20.785Z,100219.09
2022-12-26T13:32:49.468Z,100217.09
2022-12-26T13:35:52.287Z,100206.41
2022-12-26T13:38:23.417Z,100211.34
2022-12-26T13:41:17.811Z,100211.53
2022-12-26T13:44:00.696Z,100209.09
2022-12-26T13:46:53.874Z,100219.28
2022-12-26T13:49:36.045Z,100217.44
2022-12-26T13:52:26.343Z,100224.88
2022-12-26T13:55:31.040Z,100228.75
2022-12-26T13:58:30.769Z,100216.59
2022-12-26T14:01:07.418Z,100223.47
2022-12-26T14:03:50.450Z,100228.78
2022-12-26T14:06:41.716Z,100222.12
2022-12-26T14:09:21.778Z,100220.31
2022-12-26T14:12:20.860Z,100230.06
2022-12-26T14:15:06.756Z,100216.44
2022-12-26T14:17:43.974Z,100211.09
2022-12-26T14:20:23.779Z,100215.59
2022-12-26T14:23:03.827Z,100221.28
2022-12-26T14:25:43.627Z,100213.06
2022-12-26T14:28:24.369Z,100215.50
2022-12-26T14:31:06.435Z,100210.44
2022-12-26T14:33:41.169Z,100219.38
2022-12-26T14:36:22.273Z,100217.94
2022-12-26T14:38:56.467Z,100213.47
2022-12-26T14:42:26.944Z,100211.41
2022-12-26T14:44:59.723Z,100205.75
2022-12-26T14:47:41.636Z,100223.00
2022-12-26T14:50:45.114Z,100226.03
2022-12-26T14:53:31.024Z,100224.84
2022-12-26T14:56:00.853Z,100227.41
2022-12-26T14:58:48.042Z,100218.78
2022-12-26T15:01:48.756Z,100218.16
2022-12-26T15:04:37.114Z,100224.38
2022-12-26T15:07:37.384Z,100227.37
2022-12-26T15:10:43.505Z,100221.66
2022-12-26T15:13:44.158Z,100217.63
2022-12-26T15:16:26.453Z,100211.81
2022-12-26T15:19:30.188Z,100211.19
2022-12-26T15:22:25.668Z,100200.75
2022-12-26T15:25:26.188Z,100205.63
2022-12-26T15:28:20.334Z,100209.22
2022-12-26T15:31:08.026Z,100222.06
2022-12-26T15:33:41.686Z,100228.84
2022-12-26T15:36:22.274Z,100228.47
2022-12-26T15:38:57.386Z,100218.19
2022-12-26T15:41:36.505Z,100220.84
2022-12-26T15:44:19.719Z,100214.66
2022-12-26T15:46:58.386Z,100216.50
2022-12-26T15:49:49.797Z,100217.34
2022-12-26T15:52:28.057Z,100212.41
2022-12-26T15:55:26.521Z,100216.28
2022-12-26T15:58:01.736Z,100213.25
2022-12-26T16:00:33.231Z,100209.22
2022-12-26T16:03:15.352Z,100210.81
2022-12-26T16:05:52.940Z,100214.34
2022-12-26T16:08:58.254Z,100218.56
2022-12-26T16:11:31.276Z,100223.66
2022-12-26T16:14:02.818Z,100231.53
2022-12-26T16:16:34.597Z,100235.56
2022-12-26T16:19:19.263Z,100238.59
2022-12-26T16:22:16.341Z,100244.53
2022-12-26T16:24:47.691Z,100242.12
2022-12-26T16:27:18.951Z,100240.78
2022-12-26T16:29:49.976Z,100237.41
2022-12-26T16:32:21.027Z,100238.25
2022-12-26T16:34:50.278Z,100232.19
2022-12-26T16:37:21.172Z,100236.78
2022-12-26T16:40:15.918Z,100233.50
2022-12-26T16:42:46.098Z,100230.81
2022-12-26T16:45:18.741Z,100220.03
2022-12-26T16:47:47.790Z,100223.78
2022-12-26T16:50:19.781Z,100218.31
2022-12-26T16:52:50.912Z,100217.72
2022-12-26T16:55:36.707Z,100219.19
2022-12-26T16:58:14.356Z,100218.84
2022-12-26T17:00:49.860Z,100217.47
2022-12-26T17:03:28.585Z,100219.19
2022-12-26T17:05:57.336Z,100220.81
2022-12-26T17:08:26.114Z,100221.91
2022-12-26T17:10:55.611Z,100213.28
2022-12-26T17:13:27.588Z,100213.41
2022-12-26T17:15:59.096Z,100213.41
2022-12-26T17:18:40.423Z,100220.22
2022-12-26T17:21:28.974Z,100227.13
2022-12-26T17:24:12.524Z,100237.53
2022-12-26T17:26:43.646Z,100237.41
2022-12-26T17:29:37.978Z,100237.28
2022-12-26T17:32:09.733Z,100238.50
2022-12-26T17:34:40.687Z,100248.59
2022-12-26T17:37:21.809Z,100242.16
2022-12-26T17:40:02.421Z,100242.03
2022-12-26T17:42:42.007Z,100238.38
2022-12-26T17:45:15.425Z,100244.94
2022-12-26T17:47:43.573Z,100242.03
2022-12-26T17:50:12.407Z,100245.06
2022-12-26T17:52:40.986Z,100272.94
2022-12-26T17:55:16.620Z,100306.25
2022-12-26T17:57:46.436Z,100317.28
2022-12-26T18:00:20.588Z,100323.94
2022-12-26T18:02:49.149Z,100319.06
2022-12-26T18:05:18.109Z,100319.16
2022-12-26T18:07:47.411Z,100331.87
2022-12-26T18:10:19.520Z,100328.25
2022-12-26T18:12:49.300Z,100329.47
2022-12-26T18:15:19.344Z,100327.34
2022-12-26T18:17:50.304Z,100330.56
2022-12-26T18:20:26.952Z,100338.75
2022-12-26T18:22:56.075Z,100345.44
2022-12-26T18:25:27.817Z,100356.63
2022-12-26T18:27:57.423Z,100361.12
2022-12-26T18:30:27.864Z,100356.88
2022-12-26T18:32:59.187Z,100358.13
2022-12-26T18:35:33.344Z,100371.53
2022-12-26T18:38:05.386Z,100373.25
2022-12-26T18:40:36.440Z,100378.72
2022-12-26T18:43:07.697Z,100380.59
2022-12-26T18:45:37.874Z,100384.22
2022-12-26T18:48:07.199Z,100385.81
2022-12-26T18:50:36.704Z,100380.72
2022-12-26T18:53:04.790Z,100385.41
2022-12-26T18:55:33.079Z,100393.28
2022-12-26T18:58:01.361Z,100395.59
2022-12-26T19:00:31.378Z,100395.47
2022-12-26T19:02:59.289Z,100408.78
2022-12-26T19:05:31.134Z,100408.56
2022-12-26T19:07:59.998Z,100409.53
2022-12-26T19:10:30.563Z,100425.03
2022-12-26T19:13:05.641Z,100400.22
2022-12-26T19:15:36.955Z,100410.50
2022-12-26T19:18:05.912Z,100411.16
2022-12-26T19:20:39.015Z,100419.16
2022-12-26T19:23:10.417Z,100420.94
2022-12-26T19:25:38.644Z,100436.53
2022-12-26T19:28:06.592Z,100436.69
2022-12-26T19:30:39.057Z,100432.72
2022-12-26T19:33:07.938Z,100433.28
2022-12-26T19:35:36.088Z,100439.56
2022-12-26T19:38:04.147Z,100436.97
2022-12-26T19:40:32.457Z,100428.88
2022-12-26T19:43:00.516Z,100437.81
2022-12-26T19:45:28.567Z,100452.28
2022-12-26T19:47:58.456Z,100460.16
2022-12-26T19:50:26.555Z,100463.28
2022-12-26T19:52:54.475Z,100475.22
2022-12-26T19:55:23.080Z,100475.41
2022-12-26T19:57:51.081Z,100480.06
2022-12-26T20:00:20.689Z,100478.44
2022-12-26T20:02:49.178Z,100484.50
2022-12-26T20:05:18.656Z,100476.47
2022-12-26T20:07:46.672Z,100486.03
2022-12-26T20:10:15.042Z,100494.09
2022-12-26T20:12:43.131Z,100494.00
2022-12-26T20:15:11.634Z,100493.91
2022-12-26T20:17:40.104Z,100514.19
2022-12-26T20:20:08.838Z,100524.44
2022-12-26T20:22:38.347Z,100518.56
2022-12-26T20:25:09.925Z,100520.81
2022-12-26T20:27:37.983Z,100509.62
2022-12-26T20:30:08.131Z,100514.84
2022-12-26T20:32:36.492Z,100518.00
2022-12-26T20:35:04.988Z,100522.41
2022-12-26T20:37:33.293Z,100528.47
2022-12-26T20:40:02.659Z,100537.22
2022-12-26T20:42:30.627Z,100536.94
2022-12-26T20:44:58.844Z,100555.34
2022-12-26T20:47:26.821Z,100550.00
2022-12-26T20:49:54.724Z,100551.81
2022-12-26T20:52:22.930Z,100561.56
2022-12-26T20:54:50.876Z,100555.81
2022-12-26T20:57:20.214Z,100563.25
2022-12-26T20:59:48.810Z,100574.44
2022-12-26T21:02:17.164Z,100575.06
2022-12-26T21:04:45.285Z,100587.28
2022-12-26T21:07:13.567Z,100581.31
2022-12-26T21:09:46.225Z,100586.56
2022-12-26T21:12:15.110Z,100581.53
2022-12-26T21:14:44.524Z,100589.56
2022-12-26T21:17:17.984Z,100595.22
2022-12-26T21:19:46.565Z,100604.00
2022-12-26T21:22:14.537Z,100598.09
2022-12-26T21:24:42.697Z,100602.56
2022-12-26T21:27:11.028Z,100611.38
2022-12-26T21:29:40.167Z,100615.50
2022-12-26T21:32:09.511Z,100620.19
2022-12-26T21:34:38.971Z,100632.69
2022-12-26T21:37:24.566Z,100647.91
2022-12-26T21:39:52.831Z,100644.28
2022-12-26T21:42:20.911Z,100659.47
2022-12-26T21:44:49.202Z,100663.59
2022-12-26T21:47:19.059Z,100670.97
2022-12-26T21:49:47.131Z,100685.59
2022-12-26T21:52:15.187Z,100702.19
2022-12-26T21:55:01.193Z,100700.25
2022-12-26T21:57:30.667Z,100698.13
2022-12-26T21:59:59.736Z,100710.72
2022-12-26T22:02:49.428Z,100709.00
2022-12-26T22:05:20.492Z,100721.78
2022-12-26T22:07:49.330Z,100724.34
2022-12-26T22:10:32.091Z,100726.19
2022-12-26T22:13:00.988Z,100727.72
2022-12-26T22:15:46.956Z,100726.81
2022-12-26T22:18:16.562Z,100744.59
2022-12-26T22:20:46.113Z,100739.88
2022-12-26T22:23:14.398Z,100746.19
2022-12-26T22:25:42.492Z,100744.69
2022-12-26T22:28:11.362Z,100741.56
2022-12-26T22:30:39.374Z,100744.41
2022-12-26T22:33:07.290Z,100747.12
2022-12-26T22:35:37.099Z,100743.66
2022-12-26T22:38:05.224Z,100747.31
2022-12-26T22:40:33.232Z,100756.78
2022-12-26T22:43:01.512Z,100782.41
2022-12-26T22:45:29.822Z,100769.56
2022-12-26T22:47:57.901Z,100786.84
2022-12-26T22:50:26.391Z,100784.53
2022-12-26T22:52:55.783Z,100788.75
2022-12-26T22:55:23.767Z,100784.12
2022-12-26T22:57:53.087Z,100775.34
2022-12-26T23:00:22.332Z,100777.72
2022-12-26T23:02:50.672Z,100775.81
2022-12-26T23:05:19.679Z,100781.88
2022-12-26T23:07:48.239Z,100781.88
2022-12-26T23:10:22.250Z,100785.72
2022-12-26T23:12:51.951Z,100785.87
2022-12-26T23:15:22.300Z,100786.78
2022-12-26T23:18:17.857Z,100789.13
2022-12-26T23:21:04.068Z,100793.75
2022-12-26T23:23:32.873Z,100813.09
2022-12-26T23:26:02.589Z,100809.31
2022-12-26T23:28:48.169Z,100815.94
2022-12-26T23:31:16.643Z,100817.94
2022-12-26T23:33:44.846Z,100821.44
2022-12-26T23:36:13.052Z,100827.97
2022-12-26T23:38:41.418Z,100839.22
2022-12-26T23:41:10.907Z,100841.88
2022-12-26T23:43:39.247Z,100855.78
2022-12-26T23:46:10.791Z,100856.75
2022-12-26T23:48:39.066Z,100859.47
2022-12-26T23:51:09.246Z,100853.87
2022-12-26T23:53:37.741Z,100857.47
2022-12-26T23:56:08.666Z,100864.00
2022-12-26T23:58:40.114Z,100878.78
